Time;durP1;ratioP1;P1;durP2;ratioP2;P2;SDS_P1;SDS_P2;PMS_P1;PMS_P2;Temp;Humidity;BMP_temperature;BMP_pressure;BME280_temperature;BME280_humidity;BME280_pressure;Samples;Min_cycle;Max_cycle;Signal;HPM_P1;HPM_P2
2021/09/12 00:00:38;;;;;;;;;;;21.20;76.70;;;;;;5054893;28;1902;-74
2021/09/12 00:03:03;;;;;;;;;;;21.20;76.70;;;;;;5024680;28;1342;-75
2021/09/12 00:05:29;;;;;;;;;;;21.20;76.70;;;;;;5031703;28;1280;-75
2021/09/12 00:07:54;;;;;;;;;;;21.20;76.70;;;;;;5072331;28;1091;-74
2021/09/12 00:10:20;;;;;;;;;;;21.20;76.70;;;;;;5072427;28;1182;-74
2021/09/12 00:12:45;;;;;;;;;;;21.20;77.40;;;;;;5054644;28;1105;-75
2021/09/12 00:15:11;;;;;;;;;;;21.20;76.70;;;;;;5072331;28;1211;-74
2021/09/12 00:17:36;;;;;;;;;;;21.20;76.60;;;;;;5054411;28;1131;-74
2021/09/12 00:20:02;;;;;;;;;;;21.20;76.70;;;;;;5055260;28;1890;-74
2021/09/12 00:22:28;;;;;;;;;;;21.20;76.60;;;;;;5052660;28;1060;-76
2021/09/12 00:24:53;;;;;;;;;;;21.20;76.60;;;;;;5018019;28;1493;-76
2021/09/12 00:27:19;;;;;;;;;;;21.20;76.70;;;;;;5052205;28;1100;-76
2021/09/12 00:29:44;;;;;;;;;;;21.20;76.60;;;;;;5034414;28;1140;-76
2021/09/12 00:32:09;;;;;;;;;;;21.20;76.60;;;;;;5052482;28;1096;-76
2021/09/12 00:34:35;;;;;;;;;;;21.20;76.60;;;;;;5034156;28;1277;-76
2021/09/12 00:37:00;;;;;;;;;;;21.20;76.60;;;;;;5034203;28;1108;-74
2021/09/12 00:39:26;;;;;;;;;;;21.20;76.60;;;;;;5034420;28;1909;-75
2021/09/12 00:41:51;;;;;;;;;;;21.20;76.60;;;;;;5052228;28;1064;-75
2021/09/12 00:44:17;;;;;;;;;;;21.20;76.70;;;;;;5034376;28;1388;-76
2021/09/12 00:46:43;;;;;;;;;;;21.20;76.60;;;;;;5034148;28;1268;-74
2021/09/12 00:49:08;;;;;;;;;;;21.20;76.60;;;;;;5034067;28;1069;-74
2021/09/12 00:51:34;;;;;;;;;;;21.20;76.60;;;;;;5034328;28;1258;-74
2021/09/12 00:54:00;;;;;;;;;;;21.20;76.60;;;;;;5051982;28;1327;-74
2021/09/12 00:56:28;;;;;;;;;;;21.20;76.60;;;;;;5033890;28;1140;-74
2021/09/12 00:58:54;;;;;;;;;;;21.20;76.60;;;;;;5034236;28;1403;-74
2021/09/12 01:01:19;;;;;;;;;;;21.20;76.60;;;;;;5034062;28;1898;-74
2021/09/12 01:03:45;;;;;;;;;;;21.20;76.50;;;;;;5034069;28;1285;-75
2021/09/12 01:06:10;;;;;;;;;;;21.20;76.60;;;;;;5053783;28;1339;-76
2021/09/12 01:08:35;;;;;;;;;;;21.20;76.60;;;;;;5040416;28;1120;-76
2021/09/12 01:11:01;;;;;;;;;;;21.20;76.50;;;;;;5048265;28;1155;-75
2021/09/12 01:13:26;;;;;;;;;;;21.20;76.60;;;;;;5037814;28;1221;-76
2021/09/12 01:15:52;;;;;;;;;;;21.20;76.60;;;;;;5017219;28;1223;-76
2021/09/12 01:18:17;;;;;;;;;;;21.20;76.60;;;;;;5032259;28;1132;-76
2021/09/12 01:20:44;;;;;;;;;;;21.20;76.60;;;;;;5055350;28;1951;-75
2021/09/12 01:23:10;;;;;;;;;;;21.20;76.50;;;;;;5055290;28;1068;-76
2021/09/12 01:25:35;;;;;;;;;;;21.20;76.50;;;;;;5054804;28;1325;-76
2021/09/12 01:28:04;;;;;;;;;;;21.20;76.50;;;;;;5035990;28;1272;-76
2021/09/12 01:30:30;;;;;;;;;;;21.20;76.50;;;;;;5048236;28;1068;-76
2021/09/12 01:32:55;;;;;;;;;;;21.20;76.60;;;;;;5037067;28;1125;-76
2021/09/12 01:35:21;;;;;;;;;;;21.20;76.50;;;;;;5037021;28;1352;-75
2021/09/12 01:37:46;;;;;;;;;;;21.20;76.50;;;;;;5055301;28;1331;-75
2021/09/12 01:40:12;;;;;;;;;;;21.20;76.50;;;;;;5054857;28;1957;-76
2021/09/12 01:42:37;;;;;;;;;;;21.20;76.50;;;;;;5037117;28;1097;-76
2021/09/12 01:45:03;;;;;;;;;;;21.20;76.50;;;;;;5054714;28;1216;-76
2021/09/12 01:47:28;;;;;;;;;;;21.20;76.50;;;;;;5036510;28;1131;-74
2021/09/12 01:49:53;;;;;;;;;;;21.20;76.50;;;;;;5037105;28;1170;-74
2021/09/12 01:52:19;;;;;;;;;;;21.20;76.50;;;;;;5054797;28;1342;-74
2021/09/12 01:54:44;;;;;;;;;;;21.20;76.50;;;;;;5054598;28;1263;-74
2021/09/12 01:57:10;;;;;;;;;;;21.20;76.50;;;;;;5036408;28;1114;-74
2021/09/12 01:59:35;;;;;;;;;;;21.20;76.50;;;;;;5054624;28;1982;-74
2021/09/12 02:02:01;;;;;;;;;;;21.20;76.50;;;;;;5054268;28;1048;-75
2021/09/12 02:04:26;;;;;;;;;;;21.20;76.50;;;;;;5054800;28;1338;-75
2021/09/12 02:06:51;;;;;;;;;;;21.20;76.50;;;;;;5054192;28;1132;-74
2021/09/12 02:09:17;;;;;;;;;;;21.20;76.50;;;;;;5036579;28;1105;-75
2021/09/12 02:11:42;;;;;;;;;;;21.20;76.50;;;;;;5054534;28;1138;-75
2021/09/12 02:14:08;;;;;;;;;;;21.20;76.50;;;;;;5054448;28;1256;-75
2021/09/12 02:16:33;;;;;;;;;;;21.20;76.50;;;;;;5053474;28;1283;-74
2021/09/12 02:18:59;;;;;;;;;;;21.20;76.50;;;;;;5054292;28;1276;-75
2021/09/12 02:21:24;;;;;;;;;;;21.20;76.50;;;;;;5053934;28;1890;-75
2021/09/12 02:23:49;;;;;;;;;;;21.20;76.40;;;;;;5036188;28;1244;-75
2021/09/12 02:26:15;;;;;;;;;;;21.20;76.50;;;;;;5035731;28;1732;-75
2021/09/12 02:28:40;;;;;;;;;;;21.20;76.50;;;;;;5036346;28;1087;-75
2021/09/12 02:31:06;;;;;;;;;;;21.20;76.40;;;;;;5054088;28;1382;-75
2021/09/12 02:33:31;;;;;;;;;;;21.20;76.50;;;;;;5036482;28;1634;-74
2021/09/12 02:35:57;;;;;;;;;;;21.20;76.40;;;;;;5035478;28;1207;-74
2021/09/12 02:38:22;;;;;;;;;;;21.20;76.50;;;;;;5036111;28;1635;-74
2021/09/12 02:40:47;;;;;;;;;;;21.20;76.40;;;;;;5053631;28;1969;-74
2021/09/12 02:43:13;;;;;;;;;;;21.20;76.40;;;;;;5053804;28;1068;-75
2021/09/12 02:45:38;;;;;;;;;;;21.20;76.40;;;;;;5049163;28;1287;-74
2021/09/12 02:48:04;;;;;;;;;;;21.20;76.40;;;;;;5055593;28;1168;-74
2021/09/12 02:50:29;;;;;;;;;;;21.20;76.40;;;;;;5025354;28;1250;-75
2021/09/12 02:52:55;;;;;;;;;;;21.20;76.40;;;;;;5035998;28;1155;-74
2021/09/12 02:55:20;;;;;;;;;;;21.20;76.40;;;;;;5053353;28;1253;-75
2021/09/12 02:57:46;;;;;;;;;;;21.20;76.40;;;;;;5053409;28;1096;-74
2021/09/12 03:00:11;;;;;;;;;;;21.20;76.40;;;;;;5053368;28;1898;-74
2021/09/12 03:02:37;;;;;;;;;;;21.20;76.40;;;;;;5053475;28;1194;-74
2021/09/12 03:05:02;;;;;;;;;;;21.20;76.40;;;;;;5035264;28;1361;-75
2021/09/12 03:07:28;;;;;;;;;;;21.20;76.60;;;;;;5015639;28;1271;-74
2021/09/12 03:09:53;;;;;;;;;;;21.20;76.40;;;;;;5047267;28;1133;-74
2021/09/12 03:12:18;;;;;;;;;;;21.20;76.40;;;;;;5053326;28;1052;-74
2021/09/12 03:14:44;;;;;;;;;;;21.20;76.40;;;;;;5066853;28;1403;-75
2021/09/12 03:17:09;;;;;;;;;;;21.20;76.40;;;;;;5055065;28;1174;-74
2021/09/12 03:19:35;;;;;;;;;;;21.20;76.40;;;;;;5038544;28;1906;-75
2021/09/12 03:22:00;;;;;;;;;;;21.20;76.40;;;;;;5015461;28;1259;-75
2021/09/12 03:24:26;;;;;;;;;;;21.20;76.40;;;;;;5046751;28;1334;-75
2021/09/12 03:26:54;;;;;;;;;;;21.20;76.40;;;;;;5052784;28;1449;-76
2021/09/12 03:29:20;;;;;;;;;;;21.20;76.40;;;;;;5052270;28;1392;-76
2021/09/12 03:31:45;;;;;;;;;;;21.20;76.40;;;;;;5034922;28;1288;-75
2021/09/12 03:34:10;;;;;;;;;;;21.20;76.40;;;;;;5035086;28;1275;-76
2021/09/12 03:36:36;;;;;;;;;;;21.20;76.40;;;;;;5052609;28;1325;-76
2021/09/12 03:39:01;;;;;;;;;;;21.20;76.40;;;;;;5052941;28;1301;-75
2021/09/12 03:41:27;;;;;;;;;;;21.10;76.30;;;;;;5015014;28;1914;-76
2021/09/12 03:43:52;;;;;;;;;;;21.20;76.40;;;;;;5040568;28;1302;-76
2021/09/12 03:46:18;;;;;;;;;;;21.20;76.40;;;;;;5072256;28;948;-76
2021/09/12 03:48:43;;;;;;;;;;;21.20;76.40;;;;;;5038332;28;1353;-76
2021/09/12 03:51:08;;;;;;;;;;;21.20;76.40;;;;;;5035472;28;1265;-76
2021/09/12 03:53:34;;;;;;;;;;;21.20;76.40;;;;;;5035065;28;1347;-76
2021/09/12 03:55:59;;;;;;;;;;;21.20;76.40;;;;;;5017568;28;1322;-76
2021/09/12 03:58:25;;;;;;;;;;;21.20;76.40;;;;;;5054860;28;1500;-76
2021/09/12 04:00:50;;;;;;;;;;;21.20;76.40;;;;;;5072358;28;1906;-75
2021/09/12 04:03:15;;;;;;;;;;;21.20;76.40;;;;;;5054710;28;1260;-76
2021/09/12 04:05:41;;;;;;;;;;;21.20;76.40;;;;;;5072217;28;1275;-76
2021/09/12 04:08:06;;;;;;;;;;;21.20;76.40;;;;;;5072831;28;1256;-76
2021/09/12 04:10:32;;;;;;;;;;;21.20;76.40;;;;;;5072511;28;1099;-76
2021/09/12 04:12:59;;;;;;;;;;;21.10;76.30;;;;;;5054806;28;1268;-76
2021/09/12 04:15:25;;;;;;;;;;;21.20;76.40;;;;;;5038045;28;1327;-76
2021/09/12 04:17:50;;;;;;;;;;;21.20;76.40;;;;;;5054403;28;1084;-76
2021/09/12 04:20:15;;;;;;;;;;;21.20;76.40;;;;;;5072266;28;1969;-76
2021/09/12 04:22:41;;;;;;;;;;;21.20;76.30;;;;;;5072544;28;1087;-76
2021/09/12 04:25:06;;;;;;;;;;;21.20;76.40;;;;;;5057571;28;1303;-76
2021/09/12 04:27:32;;;;;;;;;;;21.20;76.40;;;;;;5034431;28;1069;-76
2021/09/12 04:29:57;;;;;;;;;;;21.20;76.30;;;;;;5034085;28;1318;-76
2021/09/12 04:32:23;;;;;;;;;;;21.20;77.10;;;;;;5052225;28;1061;-76
2021/09/12 04:34:48;;;;;;;;;;;21.20;76.40;;;;;;5052384;28;1326;-76
2021/09/12 04:37:14;;;;;;;;;;;21.20;76.40;;;;;;5014354;28;1183;-76
2021/09/12 04:39:39;;;;;;;;;;;21.20;76.30;;;;;;5048179;28;1910;-75
2021/09/12 04:42:05;;;;;;;;;;;21.20;76.40;;;;;;5058218;28;1068;-76
2021/09/12 04:44:30;;;;;;;;;;;21.10;76.30;;;;;;5041388;28;1283;-76
2021/09/12 04:46:56;;;;;;;;;;;21.20;76.30;;;;;;5057859;28;1068;-75
2021/09/12 04:49:21;;;;;;;;;;;21.10;76.30;;;;;;5071586;28;1321;-76
2021/09/12 04:51:47;;;;;;;;;;;21.20;77.10;;;;;;5038139;28;1270;-76
2021/09/12 04:54:12;;;;;;;;;;;21.20;76.40;;;;;;5037873;28;1598;-76
2021/09/12 04:56:38;;;;;;;;;;;21.10;76.30;;;;;;5055662;28;1128;-76
2021/09/12 04:59:03;;;;;;;;;;;21.20;76.30;;;;;;5055602;28;1215;-76
2021/09/12 05:01:28;;;;;;;;;;;21.20;76.30;;;;;;5038127;28;1886;-76
2021/09/12 05:03:55;;;;;;;;;;;21.10;76.30;;;;;;5055830;28;1389;-76
2021/09/12 05:06:20;;;;;;;;;;;21.20;76.30;;;;;;5055378;28;1163;-75
2021/09/12 05:08:46;;;;;;;;;;;21.20;76.30;;;;;;5037885;28;1335;-76
2021/09/12 05:11:11;;;;;;;;;;;21.20;76.30;;;;;;5037733;28;1303;-76
2021/09/12 05:13:37;;;;;;;;;;;21.20;76.30;;;;;;5055468;28;1131;-75
2021/09/12 05:16:02;;;;;;;;;;;21.20;76.30;;;;;;5037337;28;1239;-76
2021/09/12 05:18:28;;;;;;;;;;;21.20;76.30;;;;;;5055363;28;1120;-76
2021/09/12 05:20:53;;;;;;;;;;;21.20;76.30;;;;;;5047711;28;1930;-76
2021/09/12 05:23:19;;;;;;;;;;;21.20;76.30;;;;;;5075364;28;1091;-75
2021/09/12 05:25:44;;;;;;;;;;;21.10;76.30;;;;;;5037337;28;1316;-76
2021/09/12 05:28:10;;;;;;;;;;;21.20;76.30;;;;;;5020731;28;1100;-75
2021/09/12 05:30:35;;;;;;;;;;;21.20;76.30;;;;;;5037187;28;1160;-76
2021/09/12 05:33:00;;;;;;;;;;;21.10;76.20;;;;;;5055192;28;1244;-75
2021/09/12 05:35:26;;;;;;;;;;;21.20;76.30;;;;;;5054905;28;1325;-75
2021/09/12 05:37:51;;;;;;;;;;;21.10;76.20;;;;;;5054814;28;1467;-76
2021/09/12 05:40:17;;;;;;;;;;;21.20;76.30;;;;;;5054986;28;1965;-76
2021/09/12 05:42:42;;;;;;;;;;;21.20;76.30;;;;;;5054902;28;1154;-76
2021/09/12 05:45:08;;;;;;;;;;;21.20;76.30;;;;;;5037034;28;1385;-76
2021/09/12 05:47:33;;;;;;;;;;;21.20;76.30;;;;;;5036873;28;1014;-76
2021/09/12 05:49:59;;;;;;;;;;;21.20;76.30;;;;;;5037203;28;1347;-76
2021/09/12 05:52:24;;;;;;;;;;;21.20;76.30;;;;;;5054074;28;1258;-75
2021/09/12 05:54:50;;;;;;;;;;;21.10;74.80;;;;;;5054709;28;1289;-75
2021/09/12 05:57:15;;;;;;;;;;;21.10;73.40;;;;;;5054344;28;969;-74
2021/09/12 05:59:41;;;;;;;;;;;21.10;73.50;;;;;;5036699;28;1997;-74
2021/09/12 06:02:06;;;;;;;;;;;21.10;73.10;;;;;;5054490;28;1119;-75
2021/09/12 06:04:31;;;;;;;;;;;21.10;73.70;;;;;;5054522;28;1357;-75
2021/09/12 06:06:57;;;;;;;;;;;21.10;73.50;;;;;;5036275;28;1634;-74
2021/09/12 06:09:23;;;;;;;;;;;21.10;73.50;;;;;;5054524;28;1076;-75
2021/09/12 06:11:48;;;;;;;;;;;21.10;73.80;;;;;;5036725;28;1139;-75
2021/09/12 06:14:14;;;;;;;;;;;21.10;73.90;;;;;;5045024;28;1931;-73
2021/09/12 06:16:39;;;;;;;;;;;21.10;73.80;;;;;;5044459;28;1874;-71
2021/09/12 06:19:05;;;;;;;;;;;21.10;74.00;;;;;;5032854;28;1566;-72
2021/09/12 06:21:30;;;;;;;;;;;21.10;73.90;;;;;;5069613;28;1886;-72
2021/09/12 06:23:55;;;;;;;;;;;21.10;73.80;;;;;;5051358;28;1323;-71
2021/09/12 06:26:21;;;;;;;;;;;21.10;73.90;;;;;;5017741;28;1232;-73
2021/09/12 06:28:46;;;;;;;;;;;21.10;73.90;;;;;;5053775;28;1119;-73
2021/09/12 06:31:12;;;;;;;;;;;21.10;74.00;;;;;;5036123;28;1128;-74
2021/09/12 06:33:37;;;;;;;;;;;21.10;74.00;;;;;;5052979;28;1342;-75
2021/09/12 06:36:03;;;;;;;;;;;21.10;74.00;;;;;;5017129;28;1267;-73
2021/09/12 06:38:28;;;;;;;;;;;21.10;73.90;;;;;;5053937;28;1402;-74
2021/09/12 06:40:54;;;;;;;;;;;21.10;73.90;;;;;;5036092;28;1962;-75
2021/09/12 06:43:19;;;;;;;;;;;21.10;73.80;;;;;;5053787;28;1326;-76
2021/09/12 06:45:44;;;;;;;;;;;21.10;74.00;;;;;;5053877;28;1208;-75
2021/09/12 06:48:10;;;;;;;;;;;21.10;74.00;;;;;;5073749;28;1130;-75
2021/09/12 06:50:35;;;;;;;;;;;21.10;74.00;;;;;;5041361;28;1264;-74
2021/09/12 06:53:01;;;;;;;;;;;21.10;74.10;;;;;;5053635;28;1283;-75
2021/09/12 06:55:26;;;;;;;;;;;21.10;74.00;;;;;;5035837;28;1334;-74
2021/09/12 06:57:52;;;;;;;;;;;21.10;74.10;;;;;;5015286;28;1276;-75
2021/09/12 07:00:17;;;;;;;;;;;21.10;74.10;;;;;;5048254;28;1902;-75
2021/09/12 07:02:43;;;;;;;;;;;21.10;74.00;;;;;;5034858;28;1259;-75
2021/09/12 07:05:08;;;;;;;;;;;21.10;74.10;;;;;;5053261;28;1338;-74
2021/09/12 07:07:34;;;;;;;;;;;21.10;74.10;;;;;;5053321;28;1288;-75
2021/09/12 07:10:00;;;;;;;;;;;21.10;74.10;;;;;;5035566;28;1128;-74
2021/09/12 07:12:25;;;;;;;;;;;21.10;74.10;;;;;;5052965;28;1300;-74
2021/09/12 07:14:50;;;;;;;;;;;21.10;74.10;;;;;;5053184;28;1381;-74
2021/09/12 07:17:16;;;;;;;;;;;21.10;74.20;;;;;;5052965;28;1312;-74
2021/09/12 07:19:41;;;;;;;;;;;21.10;74.20;;;;;;5035377;28;1973;-74
2021/09/12 07:22:07;;;;;;;;;;;21.10;74.30;;;;;;5035334;28;1396;-74
2021/09/12 07:24:32;;;;;;;;;;;21.10;74.30;;;;;;5035049;28;1331;-74
2021/09/12 07:26:58;;;;;;;;;;;21.10;74.30;;;;;;5052673;28;1323;-73
2021/09/12 07:29:23;;;;;;;;;;;21.10;74.30;;;;;;5035387;28;1077;-74
2021/09/12 07:31:49;;;;;;;;;;;21.10;74.40;;;;;;5035229;28;1069;-74
2021/09/12 07:34:14;;;;;;;;;;;21.10;74.40;;;;;;5053008;28;1333;-74
2021/09/12 07:36:40;;;;;;;;;;;21.10;74.50;;;;;;5052554;28;1434;-74
2021/09/12 07:39:05;;;;;;;;;;;21.10;74.60;;;;;;5053058;28;1284;-74
2021/09/12 07:41:31;;;;;;;;;;;21.10;74.50;;;;;;5052644;28;1969;-74
2021/09/12 07:43:56;;;;;;;;;;;21.10;74.50;;;;;;5052652;28;1271;-74
2021/09/12 07:46:22;;;;;;;;;;;21.10;74.60;;;;;;5034587;28;1404;-74
2021/09/12 07:48:47;;;;;;;;;;;21.10;74.60;;;;;;5035089;28;1289;-74
2021/09/12 07:51:12;;;;;;;;;;;21.10;74.60;;;;;;5052702;28;1178;-74
2021/09/12 07:53:38;;;;;;;;;;;21.10;74.60;;;;;;5052853;28;1355;-75
2021/09/12 07:56:03;;;;;;;;;;;21.10;74.70;;;;;;5034210;28;1310;-73
2021/09/12 07:58:29;;;;;;;;;;;21.10;74.70;;;;;;5052623;28;1379;-75
2021/09/12 08:00:54;;;;;;;;;;;21.10;74.70;;;;;;5034774;28;1914;-74
2021/09/12 08:03:20;;;;;;;;;;;21.00;74.60;;;;;;5035020;28;1259;-74
2021/09/12 08:05:45;;;;;;;;;;;21.10;74.80;;;;;;5052211;28;1306;-73
2021/09/12 08:08:11;;;;;;;;;;;21.10;74.90;;;;;;5034988;28;1327;-74
2021/09/12 08:10:36;;;;;;;;;;;21.10;74.90;;;;;;5035063;28;1338;-75
2021/09/12 08:13:02;;;;;;;;;;;21.10;74.90;;;;;;5052374;28;1337;-73
2021/09/12 08:15:27;;;;;;;;;;;21.10;74.90;;;;;;5055169;28;1323;-74
2021/09/12 08:17:52;;;;;;;;;;;21.10;74.90;;;;;;5056431;28;1084;-74
2021/09/12 08:20:18;;;;;;;;;;;21.10;75.00;;;;;;5056407;28;1961;-74
2021/09/12 08:22:43;;;;;;;;;;;21.10;75.00;;;;;;5056469;28;1270;-74
2021/09/12 08:25:09;;;;;;;;;;;21.10;75.10;;;;;;5056113;28;1462;-74
2021/09/12 08:27:34;;;;;;;;;;;21.10;75.10;;;;;;5055649;28;1339;-73
2021/09/12 08:30:01;;;;;;;;;;;21.10;75.10;;;;;;5018424;28;1516;-75
2021/09/12 08:32:26;;;;;;;;;;;21.10;75.20;;;;;;5047853;28;1335;-74
2021/09/12 08:34:52;;;;;;;;;;;21.10;75.20;;;;;;5056260;28;1351;-75
2021/09/12 08:37:17;;;;;;;;;;;21.10;75.20;;;;;;5038174;28;1314;-74
2021/09/12 08:39:43;;;;;;;;;;;21.10;75.20;;;;;;5056062;28;1971;-75
2021/09/12 08:42:13;;;;;;;;;;;21.10;75.30;;;;;;5055879;28;1365;-74
2021/09/12 08:44:39;;;;;;;;;;;21.10;75.40;;;;;;5038028;28;1276;-73
2021/09/12 08:47:04;;;;;;;;;;;21.10;75.40;;;;;;5049195;28;1336;-74
2021/09/12 08:49:30;;;;;;;;;;;21.10;75.40;;;;;;5070463;28;1315;-74
2021/09/12 08:51:55;;;;;;;;;;;21.10;75.40;;;;;;5018149;28;1061;-74
2021/09/12 08:54:20;;;;;;;;;;;21.10;75.40;;;;;;5054484;28;1315;-74
2021/09/12 08:56:46;;;;;;;;;;;21.10;75.40;;;;;;5055315;28;1120;-74
2021/09/12 08:59:21;;;;;;;;;;;21.10;75.50;;;;;;5037982;28;1326;-73
2021/09/12 09:01:47;;;;;;;;;;;21.10;76.20;;;;;;5037844;28;1961;-74
2021/09/12 09:04:12;;;;;;;;;;;21.10;75.40;;;;;;5037655;28;1350;-75
2021/09/12 09:06:38;;;;;;;;;;;21.10;75.40;;;;;;5055401;28;1327;-73
2021/09/12 09:09:04;;;;;;;;;;;21.10;75.50;;;;;;5037835;28;1332;-73
2021/09/12 09:11:36;;;;;;;;;;;21.10;75.60;;;;;;5055641;28;1326;-74
2021/09/12 09:14:18;;;;;;;;;;;21.10;75.60;;;;;;5055411;28;1343;-71
2021/09/12 09:16:43;;;;;;;;;;;21.10;75.60;;;;;;5037427;28;1446;-74
2021/09/12 09:19:09;;;;;;;;;;;21.10;75.60;;;;;;5055722;28;1279;-75
2021/09/12 09:21:35;;;;;;;;;;;21.10;75.50;;;;;;5055190;28;1894;-74
2021/09/12 09:24:17;;;;;;;;;;;21.10;75.50;;;;;;5055244;28;1333;-74
2021/09/12 09:26:47;;;;;;;;;;;21.10;75.50;;;;;;5016854;28;1392;-75
2021/09/12 09:29:13;;;;;;;;;;;21.10;75.60;;;;;;5047145;28;1323;-73
2021/09/12 09:31:39;;;;;;;;;;;21.10;75.50;;;;;;5037535;28;1313;-74
2021/09/12 09:34:17;;;;;;;;;;;21.10;75.60;;;;;;5054967;28;1302;-73
2021/09/12 09:36:42;;;;;;;;;;;21.10;75.60;;;;;;5036897;28;1244;-74
2021/09/12 09:39:08;;;;;;;;;;;21.10;75.60;;;;;;5055099;28;1291;-74
2021/09/12 09:41:37;;;;;;;;;;;21.10;75.60;;;;;;5055119;28;1968;-74
2021/09/12 09:44:06;;;;;;;;;;;21.10;75.60;;;;;;5037129;28;1372;-74
2021/09/12 09:46:34;;;;;;;;;;;21.10;75.70;;;;;;5054526;28;1326;-74
2021/09/12 09:49:22;;;;;;;;;;;21.10;75.70;;;;;;5037146;28;1322;-74
2021/09/12 09:51:48;;;;;;;;;;;21.10;75.70;;;;;;5054862;28;1060;-75
2021/09/12 09:54:15;;;;;;;;;;;21.10;75.80;;;;;;5054679;28;1363;-74
2021/09/12 09:56:40;;;;;;;;;;;21.10;75.80;;;;;;5036586;28;1172;-74
2021/09/12 09:59:06;;;;;;;;;;;21.10;75.70;;;;;;5036755;28;1388;-73
2021/09/12 10:01:31;;;;;;;;;;;21.10;75.70;;;;;;5036843;28;1894;-74
2021/09/12 10:03:56;;;;;;;;;;;21.10;75.70;;;;;;5054831;28;1374;-75
2021/09/12 10:06:22;;;;;;;;;;;21.10;75.70;;;;;;5036474;28;1288;-73
2021/09/12 10:08:47;;;;;;;;;;;21.10;76.50;;;;;;5036701;28;1490;-74
2021/09/12 10:11:13;;;;;;;;;;;21.10;75.70;;;;;;5036448;28;1337;-74
2021/09/12 10:13:38;;;;;;;;;;;21.10;75.70;;;;;;5036354;28;1319;-73
2021/09/12 10:16:06;;;;;;;;;;;21.10;75.70;;;;;;5036177;28;1296;-74
2021/09/12 10:18:31;;;;;;;;;;;21.10;75.70;;;;;;5054675;28;1333;-74
2021/09/12 10:21:09;;;;;;;;;;;21.10;75.80;;;;;;5036449;28;1965;-74
2021/09/12 10:23:34;;;;;;;;;;;21.10;75.80;;;;;;5018287;28;1341;-75
2021/09/12 10:26:01;;;;;;;;;;;21.10;75.80;;;;;;5053866;28;1280;-74
2021/09/12 10:28:30;;;;;;;;;;;21.10;75.80;;;;;;5054069;28;1376;-73
2021/09/12 10:30:56;;;;;;;;;;;21.10;75.80;;;;;;5051195;28;1921;-74
2021/09/12 10:33:22;;;;;;;;;;;21.10;75.80;;;;;;5060330;28;1331;-74
2021/09/12 10:35:54;;;;;;;;;;;21.10;75.80;;;;;;5037939;28;1692;-74
2021/09/12 10:38:38;;;;;;;;;;;21.10;75.80;;;;;;5050648;28;1210;-74
2021/09/12 10:41:14;;;;;;;;;;;21.10;75.80;;;;;;5036229;28;1906;-73
2021/09/12 10:43:40;;;;;;;;;;;21.10;75.70;;;;;;5036261;28;1370;-73
2021/09/12 10:46:06;;;;;;;;;;;21.10;75.80;;;;;;5046042;28;1447;-73
2021/09/12 10:48:31;;;;;;;;;;;21.10;75.80;;;;;;5053847;28;1154;-74
2021/09/12 10:50:57;;;;;;;;;;;21.10;75.80;;;;;;5053649;28;1339;-74
2021/09/12 10:53:45;;;;;;;;;;;21.10;75.80;;;;;;5035703;28;1088;-74
2021/09/12 10:56:17;;;;;;;;;;;21.10;75.90;;;;;;5053051;28;1221;-74
2021/09/12 10:58:43;;;;;;;;;;;21.10;75.90;;;;;;5053607;28;1329;-74
2021/09/12 11:01:11;;;;;;;;;;;21.10;75.80;;;;;;5053489;28;1901;-74
2021/09/12 11:03:37;;;;;;;;;;;21.10;75.90;;;;;;5053387;28;1088;-75
2021/09/12 11:06:02;;;;;;;;;;;21.10;75.90;;;;;;5035173;28;1315;-74
2021/09/12 11:08:37;;;;;;;;;;;21.10;75.90;;;;;;5035485;28;1401;-74
2021/09/12 11:11:04;;;;;;;;;;;21.10;75.90;;;;;;5053355;28;1434;-73
2021/09/12 11:13:29;;;;;;;;;;;21.10;75.90;;;;;;5035423;28;1264;-73
2021/09/12 11:16:04;;;;;;;;;;;21.10;75.90;;;;;;5052963;28;1295;-72
2021/09/12 11:18:46;;;;;;;;;;;21.10;75.90;;;;;;5053329;28;1059;-74
2021/09/12 11:21:22;;;;;;;;;;;21.10;75.80;;;;;;5053102;28;1963;-73
2021/09/12 11:23:47;;;;;;;;;;;21.10;75.90;;;;;;5053188;28;1294;-73
2021/09/12 11:26:13;;;;;;;;;;;21.10;75.80;;;;;;5052660;28;1160;-73
2021/09/12 11:28:38;;;;;;;;;;;21.10;75.90;;;;;;5059752;28;1265;-74
2021/09/12 11:31:04;;;;;;;;;;;21.10;75.90;;;;;;5073152;28;1306;-74
2021/09/12 11:33:48;;;;;;;;;;;21.10;75.90;;;;;;5073058;28;1374;-74
2021/09/12 11:36:14;;;;;;;;;;;21.10;75.90;;;;;;5038728;28;1180;-75
2021/09/12 11:38:39;;;;;;;;;;;21.10;75.80;;;;;;5052857;28;1398;-75
2021/09/12 11:41:04;;;;;;;;;;;21.10;75.90;;;;;;5034879;28;1969;-74
2021/09/12 11:43:30;;;;;;;;;;;21.20;76.00;;;;;;5035025;28;1053;-74
2021/09/12 11:46:14;;;;;;;;;;;21.20;76.00;;;;;;5052458;28;1414;-74
2021/09/12 11:48:41;;;;;;;;;;;21.20;76.10;;;;;;5030297;28;1965;-72
2021/09/12 11:51:06;;;;;;;;;;;21.20;76.10;;;;;;5028694;28;1981;-72
2021/09/12 11:53:31;;;;;;;;;;;21.20;76.10;;;;;;5052689;28;1713;-73
2021/09/12 11:56:09;;;;;;;;;;;21.20;75.90;;;;;;5056951;28;1339;-73
2021/09/12 11:58:35;;;;;;;;;;;21.20;76.00;;;;;;5053584;28;1134;-73
2021/09/12 12:01:00;;;;;;;;;;;21.20;76.00;;;;;;5052987;28;1968;-72
2021/09/12 12:03:26;;;;;;;;;;;21.20;76.00;;;;;;5034764;28;1053;-74
2021/09/12 12:05:52;;;;;;;;;;;21.20;76.00;;;;;;5034615;28;1353;-73
2021/09/12 12:08:19;;;;;;;;;;;21.20;76.70;;;;;;5034636;28;1052;-72
2021/09/12 12:10:44;;;;;;;;;;;21.20;75.90;;;;;;5035292;28;2014;-73
2021/09/12 12:13:10;;;;;;;;;;;21.20;75.80;;;;;;5034724;28;1365;-73
2021/09/12 12:15:39;;;;;;;;;;;21.20;75.70;;;;;;5052342;28;1222;-73
2021/09/12 12:18:08;;;;;;;;;;;21.20;75.80;;;;;;5034705;28;1064;-73
2021/09/12 12:20:33;;;;;;;;;;;21.20;75.70;;;;;;5052555;28;1973;-73
2021/09/12 12:23:14;;;;;;;;;;;21.20;75.70;;;;;;5052287;28;1174;-73
2021/09/12 12:25:40;;;;;;;;;;;21.20;75.70;;;;;;5034162;28;1338;-72
2021/09/12 12:28:18;;;;;;;;;;;21.20;75.70;;;;;;5034451;28;1364;-73
2021/09/12 12:31:02;;;;;;;;;;;21.20;75.70;;;;;;5034694;28;1053;-72
2021/09/12 12:33:28;;;;;;;;;;;21.20;75.60;;;;;;5052353;28;1246;-73
2021/09/12 12:36:06;;;;;;;;;;;21.20;75.60;;;;;;5052118;28;1340;-73
2021/09/12 12:38:32;;;;;;;;;;;21.20;75.60;;;;;;5034600;28;1094;-72
2021/09/12 12:41:07;;;;;;;;;;;21.20;75.50;;;;;;5034452;28;1918;-73
2021/09/12 12:43:32;;;;;;;;;;;21.20;75.50;;;;;;5034422;28;1113;-72
2021/09/12 12:45:58;;;;;;;;;;;21.20;75.60;;;;;;5051774;28;1478;-72
2021/09/12 12:48:23;;;;;;;;;;;21.20;75.60;;;;;;5052237;28;1077;-72
2021/09/12 12:50:50;;;;;;;;;;;21.20;75.50;;;;;;5052462;28;1262;-72
2021/09/12 12:53:21;;;;;;;;;;;21.20;75.50;;;;;;5034676;28;1089;-74
2021/09/12 12:55:49;;;;;;;;;;;21.20;75.50;;;;;;5051873;28;1389;-71
2021/09/12 12:58:15;;;;;;;;;;;21.20;75.50;;;;;;5034256;28;1338;-73
2021/09/12 13:00:41;;;;;;;;;;;21.20;75.40;;;;;;5035711;28;1906;-71
2021/09/12 13:03:07;;;;;;;;;;;21.20;75.40;;;;;;5055901;28;1120;-71
2021/09/12 13:05:32;;;;;;;;;;;21.20;75.50;;;;;;5037765;28;1400;-73
2021/09/12 13:07:58;;;;;;;;;;;21.20;75.40;;;;;;5055683;28;1363;-73
2021/09/12 13:10:23;;;;;;;;;;;21.20;75.40;;;;;;5055647;28;1360;-73
2021/09/12 13:12:49;;;;;;;;;;;21.20;75.40;;;;;;5055405;28;1076;-73
2021/09/12 13:15:14;;;;;;;;;;;21.20;75.40;;;;;;5037594;28;1331;-73
2021/09/12 13:17:40;;;;;;;;;;;21.20;75.40;;;;;;5055367;28;1244;-72
2021/09/12 13:20:05;;;;;;;;;;;21.20;75.40;;;;;;5055351;28;1890;-73
2021/09/12 13:22:31;;;;;;;;;;;21.20;75.30;;;;;;5055710;28;1417;-73
2021/09/12 13:24:56;;;;;;;;;;;21.20;75.30;;;;;;5055532;28;1421;-73
2021/09/12 13:27:22;;;;;;;;;;;21.20;75.30;;;;;;5037200;28;1277;-72
2021/09/12 13:29:47;;;;;;;;;;;21.20;75.20;;;;;;5055204;28;1402;-73
2021/09/12 13:32:12;;;;;;;;;;;21.20;75.20;;;;;;5055550;28;1388;-73
2021/09/12 13:34:38;;;;;;;;;;;21.20;75.10;;;;;;5055070;28;1378;-72
2021/09/12 13:37:03;;;;;;;;;;;21.20;75.10;;;;;;5055346;28;1064;-73
2021/09/12 13:39:29;;;;;;;;;;;21.20;75.20;;;;;;5055118;28;1304;-72
2021/09/12 13:41:54;;;;;;;;;;;21.20;75.20;;;;;;5054981;28;1898;-71
2021/09/12 13:44:19;;;;;;;;;;;21.20;75.20;;;;;;5054821;28;1369;-73
2021/09/12 13:46:45;;;;;;;;;;;21.20;76.00;;;;;;5045309;28;1859;-72
2021/09/12 13:49:10;;;;;;;;;;;21.20;75.20;;;;;;5054774;28;1174;-73
2021/09/12 13:51:36;;;;;;;;;;;21.20;75.20;;;;;;5061370;28;1264;-73
2021/09/12 13:54:02;;;;;;;;;;;21.20;75.30;;;;;;5057490;28;1301;-72
2021/09/12 13:56:27;;;;;;;;;;;21.20;75.30;;;;;;5059275;28;1095;-73
2021/09/12 13:58:52;;;;;;;;;;;21.20;75.30;;;;;;5050270;28;2190;-73
2021/09/12 14:01:18;;;;;;;;;;;21.20;75.80;;;;;;5049168;28;1905;-72
2021/09/12 14:03:43;;;;;;;;;;;21.20;75.40;;;;;;5070794;28;1063;-72
2021/09/12 14:06:09;;;;;;;;;;;21.20;75.40;;;;;;5074354;28;1306;-72
2021/09/12 14:08:34;;;;;;;;;;;21.20;75.30;;;;;;5074972;28;1052;-72
2021/09/12 14:11:00;;;;;;;;;;;21.20;75.40;;;;;;5056636;28;1302;-72
2021/09/12 14:13:26;;;;;;;;;;;21.20;75.40;;;;;;5073721;28;1100;-72
2021/09/12 14:15:52;;;;;;;;;;;21.20;75.40;;;;;;5056194;28;1231;-72
2021/09/12 14:18:17;;;;;;;;;;;21.20;75.50;;;;;;5074246;28;1375;-72
2021/09/12 14:20:42;;;;;;;;;;;21.20;75.60;;;;;;5074667;28;1898;-72
2021/09/12 14:23:08;;;;;;;;;;;21.20;75.50;;;;;;5074282;28;1295;-73
2021/09/12 14:25:33;;;;;;;;;;;21.20;75.50;;;;;;5037889;28;1338;-72